Time;durP1;ratioP1;P1;durP2;ratioP2;P2;SDS_P1;SDS_P2;PMS_P1;PMS_P2;Temp;Humidity;BMP_temperature;BMP_pressure;BME280_temperature;BME280_humidity;BME280_pressure;Samples;Min_cycle;Max_cycle;Signal;HPM_P1;HPM_P2
2023/12/10 00:01:48;;;;;;;;;;;;;;;4.04;71.64;99628.50;4424365;32;33321;-75
2023/12/10 00:04:16;;;;;;;;;;;;;;;3.76;72.72;99625.72;4430152;32;34002;-76
2023/12/10 00:06:43;;;;;;;;;;;;;;;3.63;73.08;99630.00;4431480;32;34691;-76
2023/12/10 00:09:11;;;;;;;;;;;;;;;3.70;73.07;99637.31;4423546;32;34928;-76
2023/12/10 00:11:39;;;;;;;;;;;;;;;3.66;73.57;99632.78;4434550;32;34207;-75
2023/12/10 00:14:06;;;;;;;;;;;;;;;3.79;72.76;99615.69;4427315;32;34238;-76
2023/12/10 00:16:33;;;;;;;;;;;;;;;3.71;73.47;99603.25;4429822;32;34099;-75
2023/12/10 00:19:01;;;;;;;;;;;;;;;3.51;73.87;99598.41;4430323;32;34167;-75
2023/12/10 00:21:28;;;;;;;;;;;;;;;3.50;73.70;99599.22;4435181;32;33091;-75
2023/12/10 00:23:55;;;;;;;;;;;;;;;3.30;74.16;99603.84;4424649;32;34280;-76
2023/12/10 00:26:23;;;;;;;;;;;;;;;3.78;73.05;99607.09;4429742;32;35124;-74
2023/12/10 00:28:50;;;;;;;;;;;;;;;3.63;73.41;99604.41;4435259;32;34443;-75
2023/12/10 00:31:17;;;;;;;;;;;;;;;3.37;74.48;99605.13;4424770;32;33332;-74
2023/12/10 00:33:45;;;;;;;;;;;;;;;3.56;73.49;99612.44;4425720;32;34642;-74
2023/12/10 00:36:12;;;;;;;;;;;;;;;3.76;73.17;99616.34;4431152;32;33742;-74
2023/12/10 00:38:40;;;;;;;;;;;;;;;3.84;73.08;99611.75;4426189;32;34553;-74
2023/12/10 00:41:08;;;;;;;;;;;;;;;3.52;73.37;99613.00;4431966;32;33590;-74
2023/12/10 00:43:35;;;;;;;;;;;;;;;3.87;73.49;99614.53;4413154;32;35019;-74
2023/12/10 00:46:02;;;;;;;;;;;;;;;3.75;73.42;99604.34;4424057;32;34682;-74
2023/12/10 00:48:30;;;;;;;;;;;;;;;3.55;73.16;99600.41;4426705;32;34501;-75
2023/12/10 00:50:57;;;;;;;;;;;;;;;3.93;72.65;99599.56;4428459;32;33452;-74
2023/12/10 00:53:25;;;;;;;;;;;;;;;4.03;72.31;99596.84;4435522;32;34624;-75
2023/12/10 00:55:52;;;;;;;;;;;;;;;3.87;72.75;99594.03;4429464;32;34275;-75
2023/12/10 00:58:19;;;;;;;;;;;;;;;3.70;73.44;99593.75;4412010;32;34175;-74
2023/12/10 01:00:47;;;;;;;;;;;;;;;3.85;72.78;99582.81;4430435;32;34124;-76
2023/12/10 01:03:14;;;;;;;;;;;;;;;3.92;72.81;99579.84;4429140;32;34794;-74
2023/12/10 01:05:42;;;;;;;;;;;;;;;3.88;72.34;99567.63;4428582;32;34866;-74
2023/12/10 01:08:09;;;;;;;;;;;;;;;3.88;72.35;99570.19;4428534;32;33368;-75
2023/12/10 01:10:36;;;;;;;;;;;;;;;3.49;73.88;99574.37;4430587;32;33320;-75
2023/12/10 01:13:04;;;;;;;;;;;;;;;3.49;73.68;99584.63;4424833;32;34997;-75
2023/12/10 01:15:31;;;;;;;;;;;;;;;3.57;74.03;99572.34;4428061;32;34181;-74
2023/12/10 01:18:02;;;;;;;;;;;;;;;3.80;72.83;99584.16;4432482;32;33138;-74
2023/12/10 01:20:33;;;;;;;;;;;;;;;3.75;72.67;99571.03;4418876;32;33344;-74
2023/12/10 01:23:01;;;;;;;;;;;;;;;3.71;73.21;99581.87;4432836;32;34244;-75
2023/12/10 01:25:28;;;;;;;;;;;;;;;3.53;74.83;99581.47;4433937;32;33725;-74
2023/12/10 01:27:55;;;;;;;;;;;;;;;3.70;74.06;99580.97;4428851;32;34457;-76
2023/12/10 01:30:23;;;;;;;;;;;;;;;3.72;73.82;99573.38;4432033;32;34265;-74
2023/12/10 01:32:55;;;;;;;;;;;;;;;3.72;73.72;99558.91;4433953;32;34021;-74
2023/12/10 01:35:23;;;;;;;;;;;;;;;3.90;73.35;99553.22;4428210;32;34235;-75
2023/12/10 01:37:51;;;;;;;;;;;;;;;3.95;73.09;99557.00;4411057;32;33890;-75
2023/12/10 01:40:19;;;;;;;;;;;;;;;3.84;73.01;99563.06;4432338;32;33379;-74
2023/12/10 01:42:47;;;;;;;;;;;;;;;3.93;72.54;99556.00;4433342;32;34620;-75
2023/12/10 01:45:14;;;;;;;;;;;;;;;4.01;72.09;99547.16;4431353;32;34680;-74
2023/12/10 01:47:42;;;;;;;;;;;;;;;3.92;72.34;99537.19;4426625;32;35184;-75
2023/12/10 01:50:12;;;;;;;;;;;;;;;3.74;73.57;99541.94;4406616;32;31800;-74
2023/12/10 01:52:40;;;;;;;;;;;;;;;3.66;74.14;99542.22;4426320;32;32947;-75
2023/12/10 01:55:10;;;;;;;;;;;;;;;3.94;72.49;99529.63;4433499;32;33628;-73
2023/12/10 01:57:38;;;;;;;;;;;;;;;3.86;72.60;99530.75;4437765;32;34392;-75
2023/12/10 02:00:07;;;;;;;;;;;;;;;3.65;73.48;99515.75;4424601;32;34791;-75
2023/12/10 02:02:37;;;;;;;;;;;;;;;3.80;73.12;99531.22;4430765;32;33640;-75
2023/12/10 02:05:06;;;;;;;;;;;;;;;3.73;73.40;99519.69;4416700;32;32550;-74
2023/12/10 02:07:34;;;;;;;;;;;;;;;3.88;73.07;99514.72;4428952;32;34123;-75
2023/12/10 02:10:03;;;;;;;;;;;;;;;3.98;72.89;99523.91;4441127;32;34296;-75
2023/12/10 02:12:31;;;;;;;;;;;;;;;4.05;72.82;99515.81;4426421;32;34743;-76
2023/12/10 02:14:59;;;;;;;;;;;;;;;4.01;73.30;99520.66;4415824;32;32651;-76
2023/12/10 02:17:26;;;;;;;;;;;;;;;3.84;72.97;99525.53;4421847;32;33773;-74
2023/12/10 02:19:54;;;;;;;;;;;;;;;3.99;72.63;99512.84;4425956;32;33359;-76
2023/12/10 02:22:21;;;;;;;;;;;;;;;4.14;71.91;99503.59;4434606;32;34850;-74
2023/12/10 02:24:50;;;;;;;;;;;;;;;3.94;72.20;99504.00;4424109;32;33518;-74
2023/12/10 02:27:17;;;;;;;;;;;;;;;3.94;73.19;99488.63;4429265;32;34905;-74
2023/12/10 02:29:45;;;;;;;;;;;;;;;4.08;72.49;99482.69;4423693;32;33697;-76
2023/12/10 02:32:12;;;;;;;;;;;;;;;4.44;71.09;99473.06;4426222;32;33525;-75
2023/12/10 02:34:39;;;;;;;;;;;;;;;4.41;70.67;99471.97;4436296;32;34163;-75
2023/12/10 02:37:07;;;;;;;;;;;;;;;4.07;71.93;99470.66;4432235;32;34201;-76
2023/12/10 02:39:34;;;;;;;;;;;;;;;3.96;72.17;99463.97;4430125;32;34536;-74
2023/12/10 02:42:02;;;;;;;;;;;;;;;4.11;71.43;99425.59;4424996;32;33907;-74
2023/12/10 02:44:29;;;;;;;;;;;;;;;3.99;71.10;99430.84;4425119;32;34250;-76
2023/12/10 02:46:56;;;;;;;;;;;;;;;4.01;71.84;99425.81;4424004;32;34087;-74
2023/12/10 02:49:24;;;;;;;;;;;;;;;3.98;71.67;99434.22;4430798;32;32594;-74
2023/12/10 02:51:51;;;;;;;;;;;;;;;4.20;71.08;99428.78;4425236;32;34895;-75
2023/12/10 02:54:18;;;;;;;;;;;;;;;4.00;71.48;99413.78;4434882;32;34913;-74
2023/12/10 02:56:46;;;;;;;;;;;;;;;4.07;70.80;99409.16;4422777;32;34305;-75
2023/12/10 02:59:14;;;;;;;;;;;;;;;3.84;71.73;99404.22;4432668;32;33488;-74
2023/12/10 03:01:41;;;;;;;;;;;;;;;3.88;72.09;99416.44;4436246;32;33977;-75
2023/12/10 03:04:09;;;;;;;;;;;;;;;3.78;72.53;99417.53;4425019;32;33284;-75
2023/12/10 03:06:36;;;;;;;;;;;;;;;3.99;71.98;99419.72;4434543;32;33996;-74
2023/12/10 03:09:04;;;;;;;;;;;;;;;4.13;71.98;99417.25;4435074;32;34157;-74
2023/12/10 03:11:31;;;;;;;;;;;;;;;3.76;72.97;99406.28;4426591;32;34052;-73
2023/12/10 03:13:59;;;;;;;;;;;;;;;3.84;73.03;99399.09;4425585;32;34220;-75
2023/12/10 03:16:27;;;;;;;;;;;;;;;4.14;71.59;99406.19;4435459;32;35224;-75
2023/12/10 03:18:54;;;;;;;;;;;;;;;3.90;72.83;99404.63;4435916;32;33492;-74
2023/12/10 03:21:22;;;;;;;;;;;;;;;4.02;72.47;99415.66;4428745;32;34468;-75
2023/12/10 03:23:49;;;;;;;;;;;;;;;4.03;72.20;99417.44;4431554;32;34131;-75
2023/12/10 03:26:16;;;;;;;;;;;;;;;4.11;72.03;99421.41;4434137;32;33912;-74
2023/12/10 03:28:44;;;;;;;;;;;;;;;4.09;72.29;99430.63;4435300;32;34130;-74
2023/12/10 03:31:11;;;;;;;;;;;;;;;4.28;71.95;99429.25;4428929;32;34045;-75
2023/12/10 03:33:39;;;;;;;;;;;;;;;4.23;71.83;99444.37;4424580;32;33839;-74
2023/12/10 03:36:07;;;;;;;;;;;;;;;4.30;71.58;99443.06;4429301;32;34177;-75
2023/12/10 03:38:36;;;;;;;;;;;;;;;4.20;71.58;99436.47;4426672;32;33325;-75
2023/12/10 03:41:03;;;;;;;;;;;;;;;4.42;71.10;99443.81;4422480;32;34791;-74
2023/12/10 03:43:31;;;;;;;;;;;;;;;3.92;72.68;99444.03;4419820;32;33435;-74
2023/12/10 03:45:58;;;;;;;;;;;;;;;4.47;70.86;99434.75;4425818;32;34264;-74
2023/12/10 03:48:25;;;;;;;;;;;;;;;4.33;71.17;99443.28;4426005;32;33779;-74
2023/12/10 03:50:53;;;;;;;;;;;;;;;4.34;71.29;99445.03;4431060;32;33683;-75
2023/12/10 03:53:20;;;;;;;;;;;;;;;4.41;71.27;99447.19;4418888;32;34773;-74
2023/12/10 03:55:47;;;;;;;;;;;;;;;4.18;71.76;99448.28;4436765;32;34245;-75
2023/12/10 03:58:15;;;;;;;;;;;;;;;3.92;72.78;99431.22;4421297;32;33736;-75
2023/12/10 04:00:42;;;;;;;;;;;;;;;4.19;72.05;99423.53;4427744;32;33499;-75
2023/12/10 04:03:10;;;;;;;;;;;;;;;4.25;71.44;99423.91;4421255;32;34265;-75
2023/12/10 04:05:37;;;;;;;;;;;;;;;4.27;71.16;99427.50;4429619;32;33677;-75
2023/12/10 04:08:04;;;;;;;;;;;;;;;4.45;70.72;99428.66;4430166;32;33229;-74
2023/12/10 04:10:32;;;;;;;;;;;;;;;4.32;70.79;99431.22;4428107;32;33508;-76
2023/12/10 04:12:59;;;;;;;;;;;;;;;4.35;70.98;99436.56;4430187;32;34048;-74
2023/12/10 04:15:27;;;;;;;;;;;;;;;4.22;70.93;99431.44;4436561;32;34431;-75
2023/12/10 04:17:54;;;;;;;;;;;;;;;4.13;71.41;99431.72;4432904;32;33216;-75
2023/12/10 04:20:21;;;;;;;;;;;;;;;4.27;71.34;99427.50;4427235;32;34741;-75
2023/12/10 04:22:49;;;;;;;;;;;;;;;4.44;70.85;99421.75;4428831;32;34301;-75
2023/12/10 04:25:16;;;;;;;;;;;;;;;4.44;70.44;99416.63;4431829;32;34527;-75
2023/12/10 04:27:43;;;;;;;;;;;;;;;4.25;71.04;99413.66;4421614;32;34039;-74
2023/12/10 04:30:11;;;;;;;;;;;;;;;4.09;71.55;99417.81;4424686;32;33793;-74
2023/12/10 04:32:38;;;;;;;;;;;;;;;4.27;71.59;99414.69;4431267;32;34076;-75
2023/12/10 04:35:06;;;;;;;;;;;;;;;4.03;71.96;99414.00;4425745;32;35166;-73
2023/12/10 04:37:34;;;;;;;;;;;;;;;4.29;71.13;99420.78;4430339;32;33564;-75
2023/12/10 04:40:02;;;;;;;;;;;;;;;4.11;71.63;99426.53;4432750;32;34623;-76
2023/12/10 04:42:30;;;;;;;;;;;;;;;4.40;70.54;99419.75;4434662;32;34106;-75
2023/12/10 04:44:57;;;;;;;;;;;;;;;4.40;70.23;99419.75;4424238;32;34225;-76
2023/12/10 04:47:25;;;;;;;;;;;;;;;4.11;70.67;99426.53;4434564;32;33483;-74
2023/12/10 04:49:52;;;;;;;;;;;;;;;4.43;69.88;99429.34;4431192;32;33498;-75
2023/12/10 04:52:19;;;;;;;;;;;;;;;4.53;69.71;99422.31;4423615;32;34061;-75
2023/12/10 04:54:47;;;;;;;;;;;;;;;4.29;70.27;99431.06;4425220;32;35035;-75
2023/12/10 04:57:14;;;;;;;;;;;;;;;4.44;70.01;99432.00;4436734;32;33355;-74
2023/12/10 04:59:41;;;;;;;;;;;;;;;4.25;70.73;99435.09;4418184;32;32462;-75
2023/12/10 05:02:09;;;;;;;;;;;;;;;4.36;70.34;99435.75;4425328;32;33974;-74
2023/12/10 05:04:36;;;;;;;;;;;;;;;4.47;69.65;99436.44;4428224;32;34437;-75
2023/12/10 05:07:03;;;;;;;;;;;;;;;4.34;70.05;99434.78;4431369;32;33565;-74
2023/12/10 05:09:32;;;;;;;;;;;;;;;4.41;69.51;99426.69;4433474;32;33924;-74
2023/12/10 05:11:59;;;;;;;;;;;;;;;4.19;70.33;99424.44;4434842;32;34902;-74
2023/12/10 05:14:26;;;;;;;;;;;;;;;4.39;69.68;99423.13;4424878;32;34303;-74
2023/12/10 05:16:54;;;;;;;;;;;;;;;4.55;68.82;99419.84;4424148;32;34280;-74
2023/12/10 05:19:22;;;;;;;;;;;;;;;4.53;68.80;99412.03;4432244;32;34162;-75
2023/12/10 05:21:49;;;;;;;;;;;;;;;4.36;69.80;99414.34;4432466;32;33918;-74
2023/12/10 05:24:17;;;;;;;;;;;;;;;4.26;69.90;99415.47;4429933;32;35730;-75
2023/12/10 05:26:44;;;;;;;;;;;;;;;4.46;69.20;99409.91;4411969;32;33688;-76
2023/12/10 05:29:11;;;;;;;;;;;;;;;4.50;68.97;99410.97;4431197;32;32897;-74
2023/12/10 05:31:39;;;;;;;;;;;;;;;4.46;69.11;99415.03;4434497;32;34053;-75
2023/12/10 05:34:07;;;;;;;;;;;;;;;4.36;69.38;99422.06;4437852;32;35072;-74
2023/12/10 05:36:34;;;;;;;;;;;;;;;4.45;69.21;99418.38;4435039;32;34353;-75
2023/12/10 05:39:03;;;;;;;;;;;;;;;4.36;69.61;99432.31;4434887;32;34846;-75
2023/12/10 05:41:30;;;;;;;;;;;;;;;4.48;69.65;99423.72;4427114;32;34898;-74
2023/12/10 05:43:57;;;;;;;;;;;;;;;4.68;68.72;99429.19;4436589;32;34431;-75
2023/12/10 05:46:25;;;;;;;;;;;;;;;4.47;68.80;99426.19;4434785;32;33536;-75
2023/12/10 05:48:52;;;;;;;;;;;;;;;4.57;69.14;99422.50;4433081;32;34580;-75
2023/12/10 05:51:19;;;;;;;;;;;;;;;4.64;68.88;99424.69;4429105;32;34748;-75
2023/12/10 05:53:47;;;;;;;;;;;;;;;4.68;68.83;99421.50;4431435;32;34367;-75
2023/12/10 05:56:14;;;;;;;;;;;;;;;4.73;68.41;99421.00;4430503;32;33690;-74
2023/12/10 05:58:41;;;;;;;;;;;;;;;4.67;68.29;99422.28;4419813;32;33869;-76
2023/12/10 06:01:09;;;;;;;;;;;;;;;4.65;68.73;99431.56;4428992;32;34028;-75
2023/12/10 06:03:37;;;;;;;;;;;;;;;4.63;68.94;99430.59;4433874;32;35349;-76
2023/12/10 06:06:04;;;;;;;;;;;;;;;4.70;68.81;99435.31;4433764;32;33445;-76
2023/12/10 06:08:31;;;;;;;;;;;;;;;4.83;67.90;99427.59;4423330;32;35014;-76
2023/12/10 06:10:59;;;;;;;;;;;;;;;4.77;68.16;99432.34;4431590;32;34358;-75
2023/12/10 06:13:27;;;;;;;;;;;;;;;4.82;68.44;99425.78;4427588;32;34148;-75
2023/12/10 06:15:56;;;;;;;;;;;;;;;4.75;68.59;99422.75;4433944;32;33700;-75
2023/12/10 06:18:23;;;;;;;;;;;;;;;4.78;68.47;99421.28;4425909;32;34591;-75
2023/12/10 06:20:51;;;;;;;;;;;;;;;4.70;68.02;99425.94;4431163;32;34963;-74
2023/12/10 06:23:18;;;;;;;;;;;;;;;4.78;67.74;99426.41;4432167;32;35107;-76
2023/12/10 06:25:46;;;;;;;;;;;;;;;4.61;68.14;99429.59;4433931;32;33953;-74
2023/12/10 06:28:14;;;;;;;;;;;;;;;4.73;68.48;99431.25;4427106;32;34863;-74
2023/12/10 06:30:41;;;;;;;;;;;;;;;4.88;67.37;99432.97;4431350;32;34849;-76
2023/12/10 06:33:08;;;;;;;;;;;;;;;4.59;68.45;99436.31;4429021;32;34491;-74
2023/12/10 06:35:36;;;;;;;;;;;;;;;4.60;68.90;99443.25;4419655;32;33373;-74
2023/12/10 06:38:03;;;;;;;;;;;;;;;4.58;68.71;99444.78;4424830;32;34039;-75
2023/12/10 06:40:31;;;;;;;;;;;;;;;4.75;68.16;99444.16;4430629;32;34820;-76
2023/12/10 06:42:58;;;;;;;;;;;;;;;4.71;68.47;99455.03;4429805;32;35017;-74
2023/12/10 06:45:25;;;;;;;;;;;;;;;4.88;67.98;99456.97;4431574;32;33583;-75
2023/12/10 06:47:53;;;;;;;;;;;;;;;4.84;67.48;99459.25;4428317;32;34252;-75
2023/12/10 06:50:20;;;;;;;;;;;;;;;4.67;68.18;99458.19;4434277;32;34266;-74
2023/12/10 06:52:47;;;;;;;;;;;;;;;4.71;68.30;99462.72;4429986;32;34330;-75
2023/12/10 06:55:15;;;;;;;;;;;;;;;4.81;68.33;99474.44;4424489;32;33781;-75
2023/12/10 06:57:43;;;;;;;;;;;;;;;4.78;68.11;99485.41;4427173;32;33803;-76
2023/12/10 07:00:10;;;;;;;;;;;;;;;4.77;67.90;99481.09;4426034;32;35108;-74
2023/12/10 07:02:38;;;;;;;;;;;;;;;4.91;67.64;99487.09;4434788;32;34143;-76
2023/12/10 07:05:06;;;;;;;;;;;;;;;4.73;68.55;99489.38;4436553;32;34317;-75
2023/12/10 07:07:33;;;;;;;;;;;;;;;4.81;67.88;99479.59;4424302;32;34130;-74
2023/12/10 07:10:01;;;;;;;;;;;;;;;4.91;66.97;99477.69;4422223;32;33975;-77
2023/12/10 07:12:29;;;;;;;;;;;;;;;4.77;67.77;99478.53;4433516;32;34157;-75
2023/12/10 07:14:56;;;;;;;;;;;;;;;4.80;68.10;99485.53;4427214;32;33254;-76
2023/12/10 07:17:24;;;;;;;;;;;;;;;4.86;67.77;99484.22;4422111;32;33967;-76
2023/12/10 07:19:51;;;;;;;;;;;;;;;4.82;68.00;99481.38;4413709;32;33110;-75
2023/12/10 07:22:19;;;;;;;;;;;;;;;4.87;68.09;99491.13;4436356;32;35064;-75
2023/12/10 07:24:46;;;;;;;;;;;;;;;4.80;68.11;99499.22;4438191;32;34381;-77
2023/12/10 07:27:14;;;;;;;;;;;;;;;4.81;68.34;99490.75;4432133;32;33598;-74
2023/12/10 07:29:41;;;;;;;;;;;;;;;4.84;68.38;99498.63;4426577;32;34020;-75
2023/12/10 07:32:08;;;;;;;;;;;;;;;4.90;68.51;99499.00;4426134;32;34550;-75
2023/12/10 07:34:36;;;;;;;;;;;;;;;4.88;68.40;99498.03;4439139;32;33271;-75
2023/12/10 07:37:03;;;;;;;;;;;;;;;5.02;68.14;99500.56;4438502;32;35047;-75
2023/12/10 07:39:31;;;;;;;;;;;;;;;5.06;67.98;99499.94;4437562;32;34316;-75
2023/12/10 07:42:01;;;;;;;;;;;;;;;5.07;67.57;99500.06;4430255;32;34595;-75
2023/12/10 07:44:29;;;;;;;;;;;;;;;5.10;67.60;99502.81;4429583;32;34135;-75
2023/12/10 07:46:56;;;;;;;;;;;;;;;5.07;67.83;99504.31;4429598;32;34800;-75
2023/12/10 07:49:23;;;;;;;;;;;;;;;5.16;67.50;99504.87;4424751;32;34622;-76
2023/12/10 07:51:51;;;;;;;;;;;;;;;4.97;68.07;99508.00;4428420;32;35082;-75
2023/12/10 07:54:19;;;;;;;;;;;;;;;4.93;68.59;99501.78;4428503;32;34371;-75
2023/12/10 07:56:46;;;;;;;;;;;;;;;5.10;68.17;99514.78;4416385;32;33150;-75
2023/12/10 07:59:13;;;;;;;;;;;;;;;5.06;68.13;99502.53;4430074;32;34112;-74
2023/12/10 08:01:41;;;;;;;;;;;;;;;5.23;67.85;99511.25;4426644;32;34307;-75
2023/12/10 08:04:10;;;;;;;;;;;;;;;5.17;67.95;99516.91;4430277;32;33361;-74
2023/12/10 08:06:38;;;;;;;;;;;;;;;5.28;67.94;99517.56;4423971;32;34614;-75
2023/12/10 08:09:05;;;;;;;;;;;;;;;5.23;68.29;99522.41;4420668;32;33988;-75
2023/12/10 08:11:33;;;;;;;;;;;;;;;5.27;67.92;99519.28;4422046;32;34096;-76
2023/12/10 08:14:00;;;;;;;;;;;;;;;5.39;67.52;99525.91;4431921;32;33469;-76
2023/12/10 08:16:27;;;;;;;;;;;;;;;5.40;67.78;99520.00;4425878;32;33791;-75
2023/12/10 08:18:55;;;;;;;;;;;;;;;5.44;67.04;99529.66;4425324;32;34894;-75
2023/12/10 08:21:22;;;;;;;;;;;;;;;5.21;68.25;99529.13;4422665;32;34689;-75
2023/12/10 08:23:51;;;;;;;;;;;;;;;5.48;67.93;99534.19;4436435;32;34300;-73
2023/12/10 08:26:21;;;;;;;;;;;;;;;5.51;67.71;99534.38;4393379;32;32552;-75
2023/12/10 08:28:49;;;;;;;;;;;;;;;5.46;67.68;99541.78;4433892;32;34068;-75
2023/12/10 08:31:16;;;;;;;;;;;;;;;5.43;68.04;99536.50;4423263;32;34281;-74
2023/12/10 08:33:45;;;;;;;;;;;;;;;5.54;67.81;99539.69;4428618;32;33510;-75
2023/12/10 08:36:13;;;;;;;;;;;;;;;5.46;67.91;99540.91;4426429;32;34894;-76
2023/12/10 08:38:40;;;;;;;;;;;;;;;5.62;67.46;99538.50;4433945;32;34632;-75
2023/12/10 08:41:08;;;;;;;;;;;;;;;5.56;67.33;99545.81;4428905;32;34114;-76
2023/12/10 08:43:37;;;;;;;;;;;;;;;5.68;66.79;99554.28;4410337;32;33356;-75
2023/12/10 08:46:04;;;;;;;;;;;;;;;5.74;66.60;99551.19;4425944;32;33740;-74
2023/12/10 08:48:32;;;;;;;;;;;;;;;5.69;66.79;99545.75;4422478;32;33803;-75
2023/12/10 08:51:00;;;;;;;;;;;;;;;5.50;67.01;99548.94;4427835;32;35046;-74
2023/12/10 08:53:27;;;;;;;;;;;;;;;5.87;65.69;99555.34;4422841;32;33304;-75
2023/12/10 08:55:54;;;;;;;;;;;;;;;5.75;66.45;99563.22;4424352;32;33848;-75
2023/12/10 08:58:22;;;;;;;;;;;;;;;5.65;66.91;99569.50;4427803;32;33183;-75
2023/12/10 09:00:50;;;;;;;;;;;;;;;5.68;66.46;99574.84;4420121;32;34691;-74
2023/12/10 09:03:17;;;;;;;;;;;;;;;5.76;66.42;99584.69;4422702;32;34039;-75
2023/12/10 09:05:45;;;;;;;;;;;;;;;5.97;65.55;99579.97;4423522;32;34836;-74
2023/12/10 09:08:12;;;;;;;;;;;;;;;5.75;66.29;99581.22;4415134;32;33724;-74
2023/12/10 09:10:40;;;;;;;;;;;;;;;5.93;66.03;99581.44;4428705;32;35106;-74
2023/12/10 09:13:07;;;;;;;;;;;;;;;5.75;66.48;99591.50;4423407;32;33051;-75
2023/12/10 09:15:35;;;;;;;;;;;;;;;5.89;66.04;99594.88;4431027;32;33837;-74
2023/12/10 09:18:02;;;;;;;;;;;;;;;5.90;66.11;99601.81;4425289;32;34328;-75
2023/12/10 09:20:30;;;;;;;;;;;;;;;5.87;66.14;99586.19;4424847;32;35009;-74
2023/12/10 09:22:57;;;;;;;;;;;;;;;6.08;65.56;99589.19;4424106;32;32938;-75
2023/12/10 09:25:25;;;;;;;;;;;;;;;5.88;65.96;99588.00;4426908;32;34175;-74
2023/12/10 09:27:52;;;;;;;;;;;;;;;6.01;66.07;99584.50;4430473;32;33780;-74
2023/12/10 09:30:19;;;;;;;;;;;;;;;6.09;67.31;99583.28;4427653;32;34886;-74
2023/12/10 09:32:47;;;;;;;;;;;;;;;6.15;66.56;99588.78;4423161;32;33614;-75
2023/12/10 09:35:14;;;;;;;;;;;;;;;6.04;66.57;99593.25;4429757;32;34799;-74
2023/12/10 09:37:42;;;;;;;;;;;;;;;6.47;63.80;99590.66;4426841;32;35366;-75
2023/12/10 09:40:10;;;;;;;;;;;;;;;6.35;64.10;99595.06;4430606;32;34492;-75
2023/12/10 09:42:37;;;;;;;;;;;;;;;6.30;63.83;99592.25;4432426;32;32716;-75
2023/12/10 09:45:06;;;;;;;;;;;;;;;6.43;63.18;99596.41;4424581;32;34760;-76
2023/12/10 09:47:34;;;;;;;;;;;;;;;6.29;63.54;99587.00;4429948;32;35070;-76
2023/12/10 09:50:02;;;;;;;;;;;;;;;6.36;63.15;99586.56;4417556;32;34525;-76
2023/12/10 09:52:30;;;;;;;;;;;;;;;6.07;64.15;99590.00;4421224;32;33665;-75
2023/12/10 09:54:58;;;;;;;;;;;;;;;5.99;64.58;99591.22;4424521;32;34618;-75
2023/12/10 09:57:28;;;;;;;;;;;;;;;6.60;62.87;99596.47;4426575;32;34871;-75
2023/12/10 09:59:55;;;;;;;;;;;;;;;6.60;62.13;99596.47;4435433;32;34188;-75
2023/12/10 10:02:41;;;;;;;;;;;;;;;6.62;61.92;99602.59;4427029;32;34044;-75
2023/12/10 10:05:08;;;;;;;;;;;;;;;6.46;62.42;99606.00;4419358;32;33840;-75
2023/12/10 10:07:36;;;;;;;;;;;;;;;6.41;62.19;99605.75;4426234;32;33609;-74
2023/12/10 10:10:05;;;;;;;;;;;;;;;6.53;61.90;99602.06;4429316;32;34270;-75
2023/12/10 10:12:33;;;;;;;;;;;;;;;6.44;61.96;99600.75;4433796;32;32763;-72
2023/12/10 10:15:01;;;;;;;;;;;;;;;6.21;66.17;99599.41;4409219;32;34075;-75
2023/12/10 10:17:32;;;;;;;;;;;;;;;6.27;66.14;99588.59;4428103;32;33723;-75
2023/12/10 10:20:00;;;;;;;;;;;;;;;6.39;66.30;99594.44;4429067;32;32777;-75
2023/12/10 10:22:28;;;;;;;;;;;;;;;6.57;65.06;99592.06;4429075;32;33534;-76
2023/12/10 10:24:55;;;;;;;;;;;;;;;6.25;65.61;99598.78;4432527;32;33681;-76
2023/12/10 10:27:23;;;;;;;;;;;;;;;6.77;85.23;99600.91;4426127;32;34273;-76
2023/12/10 10:29:53;;;;;;;;;;;;;;;7.25;77.94;99583.81;4428514;32;34434;-74
2023/12/10 10:32:21;;;;;;;;;;;;;;;7.44;70.05;99587.41;4420540;32;35004;-76
2023/12/10 10:34:49;;;;;;;;;;;;;;;7.32;65.23;99590.22;4431355;32;34165;-76
2023/12/10 10:37:20;;;;;;;;;;;;;;;7.11;65.12;99596.75;4436415;32;33935;-75
2023/12/10 10:39:49;;;;;;;;;;;;;;;6.91;65.30;99600.78;4421949;32;34282;-75
2023/12/10 10:42:17;;;;;;;;;;;;;;;7.01;63.86;99600.50;4418046;32;33443;-75
2023/12/10 10:44:46;;;;;;;;;;;;;;;6.84;63.82;99604.72;4425647;32;33974;-74
2023/12/10 10:47:15;;;;;;;;;;;;;;;6.69;63.84;99604.75;4427927;32;33977;-75
2023/12/10 10:49:47;;;;;;;;;;;;;;;6.62;63.64;99613.78;4421783;32;34213;-74
2023/12/10 10:52:35;;;;;;;;;;;;;;;7.02;62.49;99599.72;4409884;32;33452;-74
2023/12/10 10:55:03;;;;;;;;;;;;;;;6.73;67.75;99611.84;4428036;32;33860;-75
2023/12/10 10:57:31;;;;;;;;;;;;;;;6.87;65.17;99605.75;4430899;32;34940;-75
2023/12/10 10:59:59;;;;;;;;;;;;;;;6.68;64.33;99618.38;4421571;32;34130;-74
2023/12/10 11:02:31;;;;;;;;;;;;;;;6.85;63.29;99607.38;4418524;32;31909;-74
2023/12/10 11:04:59;;;;;;;;;;;;;;;6.92;62.40;99607.72;4429638;32;34771;-75
2023/12/10 11:07:26;;;;;;;;;;;;;;;6.67;63.11;99601.19;4432076;32;34296;-74
2023/12/10 11:09:55;;;;;;;;;;;;;;;6.84;62.41;99594.44;4430747;32;34298;-75
2023/12/10 11:12:41;;;;;;;;;;;;;;;6.95;61.89;99602.75;4432518;32;33806;-74
2023/12/10 11:15:16;;;;;;;;;;;;;;;7.03;61.35;99601.47;4435378;32;34988;-75
2023/12/10 11:17:59;;;;;;;;;;;;;;;6.69;62.45;99610.75;4430575;32;34924;-76
2023/12/10 11:20:38;;;;;;;;;;;;;;;6.92;61.87;99602.59;4424260;32;33814;-74
2023/12/10 11:23:07;;;;;;;;;;;;;;;6.77;64.82;99608.62;4429424;32;33966;-75
2023/12/10 11:25:35;;;;;;;;;;;;;;;6.67;64.84;99611.50;4425288;32;34083;-75
2023/12/10 11:28:08;;;;;;;;;;;;;;;6.63;63.42;99622.41;4417684;32;34178;-75
2023/12/10 11:30:36;;;;;;;;;;;;;;;6.74;63.13;99623.91;4430879;32;34394;-75
2023/12/10 11:33:04;;;;;;;;;;;;;;;6.80;62.27;99619.09;4432037;32;33434;-74
2023/12/10 11:35:31;;;;;;;;;;;;;;;6.44;63.64;99634.19;4438161;32;34118;-74
2023/12/10 11:37:59;;;;;;;;;;;;;;;6.47;63.24;99631.81;4430908;32;34073;-74
2023/12/10 11:40:26;;;;;;;;;;;;;;;6.62;62.48;99634.38;4410089;32;35068;-73
2023/12/10 11:42:53;;;;;;;;;;;;;;;6.67;62.04;99637.22;4425146;32;33577;-74
2023/12/10 11:45:21;;;;;;;;;;;;;;;6.56;62.62;99628.88;4427948;32;34114;-74
2023/12/10 11:47:49;;;;;;;;;;;;;;;6.40;62.92;99632.25;4426311;32;34021;-74
2023/12/10 11:50:16;;;;;;;;;;;;;;;6.48;62.60;99638.72;4429951;32;34369;-73
2023/12/10 11:52:43;;;;;;;;;;;;;;;6.52;62.76;99647.50;4431483;32;34133;-74
2023/12/10 11:55:11;;;;;;;;;;;;;;;6.26;63.35;99648.56;4423236;32;34106;-74
2023/12/10 11:57:44;;;;;;;;;;;;;;;6.22;63.67;99656.88;4421100;32;33812;-74
2023/12/10 12:00:12;;;;;;;;;;;;;;;6.31;64.06;99649.72;4429240;32;34583;-74
2023/12/10 12:02:43;;;;;;;;;;;;;;;6.00;63.91;99650.44;4428655;32;33617;-74
2023/12/10 12:05:11;;;;;;;;;;;;;;;6.24;63.30;99660.47;4426384;32;34099;-75
2023/12/10 12:07:43;;;;;;;;;;;;;;;6.13;63.97;99651.22;4427631;32;33973;-75
2023/12/10 12:10:12;;;;;;;;;;;;;;;6.06;64.77;99658.53;4419799;32;35036;-75
2023/12/10 12:12:39;;;;;;;;;;;;;;;6.27;64.03;99665.75;4420537;32;34072;-75
2023/12/10 12:15:08;;;;;;;;;;;;;;;6.23;63.77;99661.25;4424477;32;33652;-74
2023/12/10 12:17:37;;;;;;;;;;;;;;;6.26;64.06;99669.16;4428663;32;34118;-74
2023/12/10 12:20:14;;;;;;;;;;;;;;;6.22;64.26;99669.72;4422230;32;34585;-74
2023/12/10 12:22:41;;;;;;;;;;;;;;;6.15;64.65;99675.31;4434543;32;34005;-74
2023/12/10 12:25:12;;;;;;;;;;;;;;;6.14;64.42;99669.28;4431794;32;34964;-74
2023/12/10 12:27:39;;;;;;;;;;;;;;;6.09;64.79;99666.44;4422641;32;34291;-74
2023/12/10 12:30:07;;;;;;;;;;;;;;;6.10;64.48;99682.75;4423889;32;35162;-74
2023/12/10 12:32:34;;;;;;;;;;;;;;;5.83;65.00;99684.50;4421349;32;33529;-74
2023/12/10 12:35:02;;;;;;;;;;;;;;;5.97;64.64;99681.13;4424753;32;33334;-74
2023/12/10 12:37:30;;;;;;;;;;;;;;;5.97;64.97;99678.56;4419635;32;34871;-74
2023/12/10 12:39:58;;;;;;;;;;;;;;;5.72;66.03;99679.59;4429728;32;34186;-75
2023/12/10 12:42:31;;;;;;;;;;;;;;;5.85;65.50;99681.25;4422713;32;33372;-74
2023/12/10 12:44:58;;;;;;;;;;;;;;;6.02;65.83;99683.97;4428251;32;34227;-75
2023/12/10 12:47:26;;;;;;;;;;;;;;;6.01;65.66;99690.81;4428977;32;34798;-74
2023/12/10 12:49:54;;;;;;;;;;;;;;;5.70;66.04;99686.31;4429872;32;34576;-75
2023/12/10 12:52:21;;;;;;;;;;;;;;;6.04;65.14;99703.84;4426344;32;33393;-75
2023/12/10 12:54:49;;;;;;;;;;;;;;;5.89;65.41;99708.91;4432218;32;33728;-76
2023/12/10 12:57:16;;;;;;;;;;;;;;;5.82;65.86;99704.19;4427896;32;34885;-76
2023/12/10 12:59:44;;;;;;;;;;;;;;;5.80;66.13;99707.47;4426824;32;34465;-75
2023/12/10 13:02:11;;;;;;;;;;;;;;;5.56;66.86;99712.81;4429154;32;33732;-73